ACA422 KLAS-CYVR
Flight info
| Callsign | ACA422 |
|---|---|
| Flight time | N/A |
| Altitude | 36000 |
| Route | JOHKR5 KENNO DCT OAL J92 FMG J5 SEA DCT PAE GRIZZ9 |
| Aircraft | B77W/H-SDE1E2E3FGHIJ2J3J4J5M1RWXY/LB1D1 |
Departure
| Time | 2026-04-30 19:00 |
|---|---|
| Airport | Harry Reid International Airport (KLAS) |
Arrival
| Time | N/A |
|---|---|
| Airport | Vancouver International Airport (CYVR) |
| Time | Latitude | Longitude | Altitude | Speed | Heading |
|---|---|---|---|---|---|
| 2026-04-30 18:26 | 36.08036 | -115.13877 | 2193 ft | 0 kts | 345° |
| 2026-04-30 18:49 | 36.08028 | -115.13874 | 2195 ft | 4 kts | 346° |
| 2026-04-30 18:49 | 36.08002 | -115.13866 | 2194 ft | 4 kts | 343° |
| 2026-04-30 18:49 | 36.07989 | -115.13863 | 2194 ft | 4 kts | 299° |
| 2026-04-30 18:49 | 36.07981 | -115.13842 | 2193 ft | 4 kts | 266° |
| 2026-04-30 18:50 | 36.07987 | -115.13824 | 2191 ft | 4 kts | 224° |
| 2026-04-30 18:50 | 36.08006 | -115.13803 | 2193 ft | 2 kts | 224° |
| 2026-04-30 18:50 | 36.08010 | -115.13797 | 2193 ft | 0 kts | 225° |
| 2026-04-30 18:53 | 36.07998 | -115.13812 | 2198 ft | 8 kts | 225° |
| 2026-04-30 18:53 | 36.07946 | -115.13876 | 2197 ft | 11 kts | 225° |
| 2026-04-30 18:53 | 36.07891 | -115.13944 | 2196 ft | 11 kts | 225° |
| 2026-04-30 18:54 | 36.07836 | -115.14014 | 2197 ft | 11 kts | 234° |
| 2026-04-30 18:54 | 36.07826 | -115.14113 | 2196 ft | 12 kts | 273° |
| 2026-04-30 18:54 | 36.07821 | -115.14218 | 2196 ft | 12 kts | 241° |
| 2026-04-30 18:54 | 36.07760 | -115.14257 | 2196 ft | 7 kts | 236° |
| 2026-04-30 18:55 | 36.07754 | -115.14322 | 2193 ft | 9 kts | 272° |
| 2026-04-30 18:55 | 36.07769 | -115.14580 | 2196 ft | 26 kts | 274° |
| 2026-04-30 18:55 | 36.07785 | -115.14804 | 2197 ft | 26 kts | 274° |
| 2026-04-30 18:56 | 36.07803 | -115.15255 | 2196 ft | 26 kts | 271° |
| 2026-04-30 18:56 | 36.07806 | -115.15480 | 2193 ft | 26 kts | 270° |
| 2026-04-30 18:56 | 36.07805 | -115.15676 | 2193 ft | 22 kts | 270° |
| 2026-04-30 18:57 | 36.07804 | -115.15983 | 2192 ft | 12 kts | 270° |
| 2026-04-30 18:57 | 36.07804 | -115.16096 | 2193 ft | 15 kts | 270° |
| 2026-04-30 18:57 | 36.07803 | -115.16261 | 2193 ft | 22 kts | 261° |
| 2026-04-30 18:58 | 36.07563 | -115.16447 | 2196 ft | 26 kts | 206° |
| 2026-04-30 18:58 | 36.07407 | -115.16546 | 2198 ft | 16 kts | 221° |
| 2026-04-30 18:58 | 36.07412 | -115.16681 | 2194 ft | 11 kts | 295° |
| 2026-04-30 18:59 | 36.07486 | -115.16716 | 2195 ft | 9 kts | 24° |
| 2026-04-30 19:00 | 36.09411 | -115.15602 | 2315 ft | 183 kts | 26° |
| 2026-04-30 19:00 | 36.10573 | -115.14909 | 2984 ft | 188 kts | 24° |
| 2026-04-30 19:00 | 36.12901 | -115.15642 | 4477 ft | 202 kts | 309° |
| 2026-04-30 19:01 | 36.12995 | -115.19113 | 5798 ft | 212 kts | 256° |
| 2026-04-30 19:01 | 36.12710 | -115.20305 | 6070 ft | 224 kts | 256° |
| 2026-04-30 19:02 | 36.11760 | -115.24491 | 6641 ft | 280 kts | 257° |
| 2026-04-30 19:02 | 36.10207 | -115.28817 | 8523 ft | 270 kts | 222° |
| 2026-04-30 19:03 | 36.06815 | -115.30963 | 9873 ft | 291 kts | 201° |
| 2026-04-30 19:03 | 36.02891 | -115.32816 | 10965 ft | 325 kts | 202° |
| 2026-04-30 19:04 | 35.98301 | -115.35039 | 11575 ft | 381 kts | 202° |
| 2026-04-30 19:04 | 35.93341 | -115.37415 | 13896 ft | 384 kts | 202° |
| 2026-04-30 19:05 | 35.88730 | -115.40681 | 15492 ft | 395 kts | 232° |
| 2026-04-30 19:05 | 35.86817 | -115.46961 | 17303 ft | 397 kts | 270° |
| 2026-04-30 19:06 | 35.87234 | -115.53750 | 19018 ft | 406 kts | 277° |
| 2026-04-30 19:06 | 35.87472 | -115.57256 | 19713 ft | 415 kts | 277° |
| 2026-04-30 19:06 | 35.87902 | -115.64452 | 21116 ft | 430 kts | 277° |
| 2026-04-30 19:07 | 35.88321 | -115.71892 | 22683 ft | 440 kts | 277° |
| 2026-04-30 19:07 | 35.88541 | -115.75674 | 23396 ft | 441 kts | 279° |
| 2026-04-30 19:08 | 35.90928 | -115.82522 | 24450 ft | 441 kts | 313° |
| 2026-04-30 19:08 | 35.95599 | -115.87398 | 25624 ft | 445 kts | 323° |
| 2026-04-30 19:08 | 35.98025 | -115.89724 | 26179 ft | 449 kts | 323° |
| 2026-04-30 19:09 | 36.02983 | -115.94508 | 27391 ft | 456 kts | 322° |
| 2026-04-30 19:09 | 36.05491 | -115.96951 | 27956 ft | 460 kts | 322° |
| 2026-04-30 19:09 | 36.08010 | -115.99417 | 28443 ft | 464 kts | 322° |
| 2026-04-30 19:10 | 36.13105 | -116.04433 | 29458 ft | 471 kts | 322° |
| 2026-04-30 19:10 | 36.18250 | -116.09515 | 30346 ft | 475 kts | 321° |
| 2026-04-30 19:11 | 36.20833 | -116.12071 | 30858 ft | 473 kts | 321° |
| 2026-04-30 19:11 | 36.25955 | -116.17144 | 31957 ft | 469 kts | 321° |
| 2026-04-30 19:11 | 36.28472 | -116.19639 | 32469 ft | 468 kts | 321° |
| 2026-04-30 19:12 | 36.31021 | -116.22168 | 32962 ft | 467 kts | 321° |
| 2026-04-30 19:12 | 36.33557 | -116.24686 | 33457 ft | 466 kts | 321° |
| 2026-04-30 19:12 | 36.36095 | -116.27208 | 33939 ft | 465 kts | 321° |
| 2026-04-30 19:13 | 36.41131 | -116.32219 | 34777 ft | 463 kts | 321° |
| 2026-04-30 19:13 | 36.46142 | -116.37214 | 35569 ft | 461 kts | 321° |
| 2026-04-30 19:13 | 36.48635 | -116.39703 | 35925 ft | 461 kts | 321° |
| 2026-04-30 19:14 | 36.51142 | -116.42208 | 35894 ft | 463 kts | 321° |
| 2026-04-30 19:14 | 36.56109 | -116.47176 | 35902 ft | 459 kts | 321° |
| 2026-04-30 19:15 | 36.61076 | -116.52152 | 35923 ft | 458 kts | 321° |
| 2026-04-30 19:15 | 36.68523 | -116.59630 | 35927 ft | 458 kts | 320° |
| 2026-04-30 19:16 | 36.73478 | -116.64616 | 35930 ft | 458 kts | 320° |
| 2026-04-30 19:17 | 36.80904 | -116.72104 | 35938 ft | 458 kts | 320° |
| 2026-04-30 19:17 | 36.88305 | -116.79586 | 35947 ft | 458 kts | 320° |
| 2026-04-30 19:18 | 36.95726 | -116.87108 | 35959 ft | 458 kts | 320° |
| 2026-04-30 19:19 | 37.00671 | -116.92131 | 35958 ft | 457 kts | 320° |
| 2026-04-30 19:19 | 37.08064 | -116.99657 | 35975 ft | 456 kts | 320° |
| 2026-04-30 19:20 | 37.12994 | -117.04686 | 35983 ft | 456 kts | 320° |
| 2026-04-30 19:21 | 37.20352 | -117.12209 | 35992 ft | 455 kts | 320° |
| 2026-04-30 19:22 | 37.30143 | -117.22250 | 36011 ft | 454 kts | 319° |
| 2026-04-30 19:23 | 37.44789 | -117.37334 | 36009 ft | 454 kts | 319° |
| 2026-04-30 19:24 | 37.52107 | -117.44901 | 36008 ft | 453 kts | 319° |
| 2026-04-30 19:25 | 37.64267 | -117.57519 | 36006 ft | 453 kts | 319° |
| 2026-04-30 19:26 | 37.73980 | -117.67636 | 35995 ft | 452 kts | 319° |
| 2026-04-30 19:27 | 37.81217 | -117.75197 | 36006 ft | 451 kts | 319° |
| 2026-04-30 19:28 | 37.88471 | -117.82797 | 35995 ft | 451 kts | 319° |
| 2026-04-30 19:29 | 37.98113 | -117.92930 | 36006 ft | 450 kts | 319° |
| 2026-04-30 19:30 | 38.07729 | -118.03071 | 35999 ft | 449 kts | 319° |
| 2026-04-30 19:31 | 38.17282 | -118.13181 | 36008 ft | 448 kts | 318° |
| 2026-04-30 19:31 | 38.24460 | -118.20801 | 35994 ft | 448 kts | 318° |
| 2026-04-30 19:32 | 38.29245 | -118.25893 | 36021 ft | 448 kts | 318° |
| 2026-04-30 19:32 | 38.34033 | -118.30997 | 36019 ft | 449 kts | 318° |
| 2026-04-30 19:33 | 38.38820 | -118.36108 | 36052 ft | 448 kts | 318° |
| 2026-04-30 19:33 | 38.43599 | -118.41219 | 36073 ft | 448 kts | 318° |
| 2026-04-30 19:34 | 38.48364 | -118.46325 | 36107 ft | 447 kts | 318° |
| 2026-04-30 19:35 | 38.55507 | -118.53997 | 36137 ft | 447 kts | 318° |
| 2026-04-30 19:35 | 38.60266 | -118.59120 | 36138 ft | 446 kts | 318° |
| 2026-04-30 19:36 | 38.65016 | -118.64242 | 36132 ft | 446 kts | 318° |
| 2026-04-30 19:36 | 38.72098 | -118.71896 | 36092 ft | 446 kts | 317° |
| 2026-04-30 19:37 | 38.76830 | -118.77021 | 36065 ft | 445 kts | 317° |
| 2026-04-30 19:37 | 38.81534 | -118.82125 | 36038 ft | 443 kts | 317° |
| 2026-04-30 19:38 | 38.86248 | -118.87251 | 36030 ft | 444 kts | 317° |
| 2026-04-30 19:38 | 38.90960 | -118.92382 | 36033 ft | 445 kts | 317° |
| 2026-04-30 19:39 | 38.95656 | -118.97507 | 36035 ft | 446 kts | 317° |
| 2026-04-30 19:39 | 39.00389 | -119.02679 | 36029 ft | 446 kts | 317° |
| 2026-04-30 19:40 | 39.05121 | -119.07861 | 36031 ft | 446 kts | 317° |
| 2026-04-30 19:40 | 39.09847 | -119.13046 | 36026 ft | 446 kts | 317° |
| 2026-04-30 19:41 | 39.14566 | -119.18232 | 36034 ft | 445 kts | 317° |
| 2026-04-30 19:41 | 39.19271 | -119.23413 | 36036 ft | 445 kts | 317° |
| 2026-04-30 19:42 | 39.23929 | -119.28606 | 36036 ft | 444 kts | 315° |
| 2026-04-30 19:42 | 39.28367 | -119.34144 | 36059 ft | 443 kts | 313° |
| 2026-04-30 19:43 | 39.32751 | -119.39734 | 36067 ft | 443 kts | 313° |
| 2026-04-30 19:44 | 39.39352 | -119.48108 | 36080 ft | 443 kts | 313° |
| 2026-04-30 19:44 | 39.43752 | -119.53684 | 36119 ft | 443 kts | 313° |
| 2026-04-30 19:45 | 39.48153 | -119.59272 | 36132 ft | 444 kts | 313° |
| 2026-04-30 19:45 | 39.52974 | -119.64184 | 36146 ft | 448 kts | 328° |
| 2026-04-30 19:46 | 39.58750 | -119.67317 | 36135 ft | 456 kts | 342° |
| 2026-04-30 19:46 | 39.64978 | -119.69008 | 36152 ft | 458 kts | 344° |
| 2026-04-30 19:47 | 39.71230 | -119.70615 | 36153 ft | 458 kts | 344° |
| 2026-04-30 19:47 | 39.77466 | -119.72308 | 36143 ft | 458 kts | 343° |
| 2026-04-30 19:48 | 39.83700 | -119.74040 | 36118 ft | 457 kts | 343° |
| 2026-04-30 19:48 | 39.89909 | -119.75762 | 36095 ft | 456 kts | 343° |
| 2026-04-30 19:49 | 39.95065 | -119.77192 | 36089 ft | 456 kts | 343° |
| 2026-04-30 19:49 | 40.05383 | -119.80062 | 36055 ft | 456 kts | 343° |
| 2026-04-30 19:50 | 40.10546 | -119.81503 | 36061 ft | 456 kts | 343° |
| 2026-04-30 19:50 | 40.16759 | -119.83239 | 36056 ft | 457 kts | 343° |
| 2026-04-30 19:51 | 40.22976 | -119.84980 | 36066 ft | 457 kts | 343° |
| 2026-04-30 19:51 | 40.29195 | -119.86724 | 36071 ft | 457 kts | 343° |
| 2026-04-30 19:52 | 40.35427 | -119.88476 | 36064 ft | 457 kts | 343° |
| 2026-04-30 19:52 | 40.41652 | -119.90230 | 36069 ft | 456 kts | 343° |
| 2026-04-30 19:53 | 40.47820 | -119.91969 | 36077 ft | 456 kts | 343° |
| 2026-04-30 19:53 | 40.54027 | -119.93725 | 36091 ft | 455 kts | 343° |
| 2026-04-30 19:54 | 40.60230 | -119.95478 | 36109 ft | 456 kts | 343° |
| 2026-04-30 19:54 | 40.66448 | -119.97242 | 36101 ft | 457 kts | 343° |
| 2026-04-30 19:55 | 40.72682 | -119.99016 | 36093 ft | 458 kts | 343° |
| 2026-04-30 19:55 | 40.78914 | -120.00791 | 36101 ft | 459 kts | 343° |
| 2026-04-30 19:56 | 40.85156 | -120.02572 | 36103 ft | 459 kts | 343° |
| 2026-04-30 19:56 | 40.91355 | -120.04346 | 36105 ft | 459 kts | 343° |
| 2026-04-30 19:57 | 40.97596 | -120.06136 | 36103 ft | 458 kts | 343° |
| 2026-04-30 19:57 | 41.03827 | -120.07926 | 36110 ft | 458 kts | 343° |
| 2026-04-30 19:58 | 41.10060 | -120.09722 | 36107 ft | 458 kts | 343° |
| 2026-04-30 19:58 | 41.16278 | -120.11516 | 36110 ft | 457 kts | 343° |
| 2026-04-30 19:59 | 41.22501 | -120.13309 | 36117 ft | 458 kts | 343° |
| 2026-04-30 20:00 | 41.31869 | -120.16024 | 36110 ft | 458 kts | 343° |
| 2026-04-30 20:00 | 41.38060 | -120.17821 | 36116 ft | 458 kts | 343° |
| 2026-04-30 20:01 | 41.47389 | -120.20532 | 36132 ft | 458 kts | 343° |
| 2026-04-30 20:01 | 41.53626 | -120.22351 | 36128 ft | 458 kts | 343° |
| 2026-04-30 20:02 | 41.62978 | -120.25086 | 36119 ft | 457 kts | 344° |
| 2026-04-30 20:03 | 41.72274 | -120.27811 | 36119 ft | 458 kts | 344° |
| 2026-04-30 20:03 | 41.78504 | -120.29642 | 36114 ft | 458 kts | 344° |
| 2026-04-30 20:04 | 41.84730 | -120.31477 | 36129 ft | 457 kts | 344° |
| 2026-04-30 20:05 | 41.94054 | -120.34229 | 36151 ft | 457 kts | 344° |
| 2026-04-30 20:05 | 42.03332 | -120.36977 | 36169 ft | 456 kts | 344° |
| 2026-04-30 20:06 | 42.09528 | -120.38817 | 36177 ft | 456 kts | 344° |
| 2026-04-30 20:06 | 42.15716 | -120.40658 | 36175 ft | 455 kts | 344° |
| 2026-04-30 20:07 | 42.21907 | -120.42503 | 36177 ft | 455 kts | 344° |
| 2026-04-30 20:08 | 42.31204 | -120.45282 | 36168 ft | 456 kts | 344° |
| 2026-04-30 20:08 | 42.37399 | -120.47138 | 36161 ft | 456 kts | 344° |
| 2026-04-30 20:09 | 42.43555 | -120.48987 | 36150 ft | 456 kts | 344° |
| 2026-04-30 20:09 | 42.52848 | -120.51839 | 36145 ft | 455 kts | 343° |
| 2026-04-30 20:10 | 42.62067 | -120.54958 | 36144 ft | 455 kts | 343° |
| 2026-04-30 20:11 | 42.71300 | -120.58087 | 36138 ft | 456 kts | 343° |
| 2026-04-30 20:11 | 42.77465 | -120.60166 | 36138 ft | 456 kts | 343° |
| 2026-04-30 20:12 | 42.86704 | -120.63284 | 36139 ft | 456 kts | 343° |
| 2026-04-30 20:13 | 42.92820 | -120.65354 | 36140 ft | 456 kts | 343° |
| 2026-04-30 20:13 | 42.98979 | -120.67443 | 36138 ft | 456 kts | 343° |
| 2026-04-30 20:14 | 43.05141 | -120.69538 | 36132 ft | 456 kts | 343° |
| 2026-04-30 20:14 | 43.11295 | -120.71634 | 36145 ft | 455 kts | 343° |
| 2026-04-30 20:15 | 43.17457 | -120.73738 | 36138 ft | 456 kts | 343° |
| 2026-04-30 20:15 | 43.23588 | -120.75834 | 36135 ft | 456 kts | 343° |
| 2026-04-30 20:16 | 43.29749 | -120.77947 | 36134 ft | 456 kts | 343° |
| 2026-04-30 20:16 | 43.35906 | -120.80061 | 36135 ft | 456 kts | 343° |
| 2026-04-30 20:17 | 43.42070 | -120.82183 | 36137 ft | 456 kts | 343° |
| 2026-04-30 20:17 | 43.48229 | -120.84307 | 36138 ft | 456 kts | 343° |
| 2026-04-30 20:18 | 43.54350 | -120.86423 | 36142 ft | 456 kts | 343° |
| 2026-04-30 20:18 | 43.60508 | -120.88556 | 36137 ft | 456 kts | 343° |
| 2026-04-30 20:19 | 43.66666 | -120.90694 | 36145 ft | 456 kts | 343° |
| 2026-04-30 20:19 | 43.72825 | -120.92836 | 36137 ft | 456 kts | 343° |
| 2026-04-30 20:20 | 43.78993 | -120.94986 | 36146 ft | 456 kts | 343° |
| 2026-04-30 20:20 | 43.85160 | -120.97140 | 36151 ft | 456 kts | 343° |
| 2026-04-30 20:21 | 43.91285 | -120.99284 | 36147 ft | 456 kts | 344° |
| 2026-04-30 20:21 | 43.97481 | -121.01458 | 36149 ft | 457 kts | 343° |
| 2026-04-30 20:22 | 44.03603 | -121.03611 | 36155 ft | 456 kts | 343° |
| 2026-04-30 20:22 | 44.09768 | -121.05783 | 36155 ft | 456 kts | 343° |
| 2026-04-30 20:23 | 44.15928 | -121.07958 | 36155 ft | 457 kts | 344° |
| 2026-04-30 20:23 | 44.22099 | -121.10141 | 36167 ft | 457 kts | 344° |
| 2026-04-30 20:24 | 44.28218 | -121.12310 | 36169 ft | 457 kts | 344° |
| 2026-04-30 20:24 | 44.34383 | -121.14501 | 36167 ft | 457 kts | 344° |
| 2026-04-30 20:25 | 44.43631 | -121.17796 | 36156 ft | 457 kts | 344° |
| 2026-04-30 20:26 | 44.52889 | -121.21106 | 36153 ft | 458 kts | 344° |
| 2026-04-30 20:26 | 44.62156 | -121.24430 | 36124 ft | 458 kts | 344° |
| 2026-04-30 20:27 | 44.74466 | -121.28863 | 36132 ft | 458 kts | 344° |
| 2026-04-30 20:28 | 44.86822 | -121.33332 | 36135 ft | 457 kts | 344° |